Time,TemperatureF,DewpointF,PressureIn,WindDirection,WindDirectionDegrees,WindSpeedMPH,WindSpeedGustMPH,Humidity,HourlyPrecipIn,Conditions,Clouds,dailyrainin,SoftwareType,DateUTC
2013-04-17 00:00:00,44.0,15.0,-100.00,North,-999,1.0,6.0,30,-99.99,,,-99.99,,2013-04-17 00:00:00,
2013-04-17 00:02:00,44.0,14.0,-100.00,North,-999,3.0,6.0,29,-99.99,,,-99.99,,2013-04-17 00:02:00,
2013-04-17 00:12:00,44.0,14.0,-100.00,North,-999,3.0,6.0,29,-99.99,,,-99.99,,2013-04-17 00:12:00,
2013-04-17 01:00:00,44.0,15.0,-100.00,North,-999,6.0,12.0,30,-99.99,,,-99.99,,2013-04-17 01:00:00,
2013-04-17 02:00:00,42.0,15.0,-100.00,North,-999,2.0,7.0,33,-99.99,,,-99.99,,2013-04-17 02:00:00,
2013-04-17 03:00:00,38.0,15.0,-100.00,North,-999,1.0,2.0,38,-99.99,,,-99.99,,2013-04-17 03:00:00,
2013-04-17 06:02:00,33.0,17.0,-100.00,North,-999,2.0,3.0,51,-99.99,,,-99.99,,2013-04-17 06:02:00,
2013-04-17 07:00:00,29.0,24.0,-100.00,North,-999,1.0,5.0,81,-99.99,,,-99.99,,2013-04-17 07:00:00,
2013-04-17 08:00:00,29.0,24.0,-100.00,North,-999,1.0,3.0,81,-99.99,,,-99.99,,2013-04-17 08:00:00,
2013-04-17 09:00:00,28.0,23.0,-100.00,North,-999,1.0,3.0,81,-99.99,,,-99.99,,2013-04-17 09:00:00,
2013-04-17 10:00:00,27.0,24.0,-100.00,North,-999,1.0,3.0,88,-99.99,,,-99.99,,2013-04-17 10:00:00,
2013-04-17 11:00:00,27.0,23.0,-100.00,North,-999,1.0,2.0,84,-99.99,,,-99.99,,2013-04-17 11:00:00,
2013-04-17 12:00:00,26.0,23.0,-100.00,North,-999,1.0,2.0,88,-99.99,,,-99.99,,2013-04-17 12:00:00,
2013-04-17 13:00:00,26.0,24.0,-100.00,North,-999,1.0,3.0,92,-99.99,,,-99.99,,2013-04-17 13:00:00,
2013-04-17 14:00:00,27.0,25.0,-100.00,North,-999,1.0,2.0,92,-99.99,,,-99.99,,2013-04-17 14:00:00,
2013-04-17 15:00:00,36.0,24.0,-100.00,North,-999,2.0,3.0,61,-99.99,,,-99.99,,2013-04-17 15:00:00,
2013-04-17 16:00:00,42.0,19.0,-100.00,North,-999,1.0,5.0,39,-99.99,,,-99.99,,2013-04-17 16:00:00,
2013-04-17 17:00:00,44.0,18.0,-100.00,North,-999,2.0,9.0,34,-99.99,,,-99.99,,2013-04-17 17:00:00,
2013-04-17 18:00:00,45.0,17.0,-100.00,North,-999,6.0,9.0,32,-99.99,,,-99.99,,2013-04-17 18:00:00,
2013-04-17 20:00:00,49.0,18.0,-100.00,North,-999,2.0,5.0,28,-99.99,,,-99.99,,2013-04-17 20:00:00,
2013-04-17 21:00:00,51.0,19.0,-100.00,North,-999,1.0,7.0,27,-99.99,,,-99.99,,2013-04-17 21:00:00,
2013-04-17 22:00:00,51.0,19.0,-100.00,North,-999,2.0,9.0,27,-99.99,,,-99.99,,2013-04-17 22:00:00,
2013-04-17 23:20:00,52.0,20.0,-100.00,North,-999,1.0,3.0,28,-99.99,,,-99.99,,2013-04-17 23:20:00,